logo tempoitalia

Diretta Meteo Zhezkazgan, Kazakhstanlunedì 31 agosto ore 11:00

Mappa
Sereno 15 °C Sereno 24 Ore: T.min 8 T.max 28
Ponente Nord Km/h 25.2 Punto di rugiada: -2 °C Umidità: 30% Visibilità: 9 Km
Il sole sorge alle: 05:46 Il sole tramonta alle: 19:12
31 Agosto 2026 11:00 tempo osservato: Sereno Sereno 15 30 1017 vento: Nord N 25.2
31 Agosto 2026 10:30 tempo osservato: Sereno Sereno 15 33 1017 vento: Nord N 25.2
31 Agosto 2026 10:00 tempo osservato: Sereno Sereno 14 38 1016 vento: Nord N 18
31 Agosto 2026 09:30 tempo osservato: Sereno Sereno 13 43 1016 vento: Nord N 18
31 Agosto 2026 09:00 tempo osservato: Sereno Sereno 13 43 1016 vento: Nord N/NO 14.4
31 Agosto 2026 08:30 tempo osservato: Sereno Sereno 12 43 1016 vento: Nord N 14.4
31 Agosto 2026 08:00 tempo osservato: Sereno Sereno 10 49 1016 vento: Nord N 14.4
31 Agosto 2026 07:30 tempo osservato: Sereno Sereno 9 49 1015 vento: Nord N 10.8
31 Agosto 2026 07:00 tempo osservato: Sereno Sereno 8 52 1015 vento: Nord N 10.8
31 Agosto 2026 06:30 tempo osservato: Sereno Sereno 10 49 1015 vento: Nord N/NE 14.4
31 Agosto 2026 06:00 tempo osservato: Sereno Sereno 11 46 1015 vento: Nord NE 18
31 Agosto 2026 05:30 tempo osservato: Sereno Sereno 11 46 1015 vento: Nord N/NE 18
31 Agosto 2026 05:00 tempo osservato: Sereno Sereno 11 43 1015 vento: Nord N/NE 21.6
31 Agosto 2026 04:30 tempo osservato: Sereno Sereno 10 42 1015 vento: Nord N/NE 21.6
31 Agosto 2026 04:00 tempo osservato: Sereno Sereno 10 42 1015 vento: Nord N/NE 25.2
31 Agosto 2026 03:30 tempo osservato: Sereno Sereno 10 42 1015 vento: Nord N/NE 25.2
31 Agosto 2026 03:00 tempo osservato: Sereno Sereno 10 39 1015 vento: Nord N 25.2
31 Agosto 2026 02:30 tempo osservato: Sereno Sereno 10 39 1015 vento: Nord N/NE 21.6
31 Agosto 2026 02:00 tempo osservato: Sereno Sereno 10 36 1015 vento: Nord N 21.6
31 Agosto 2026 01:30 tempo osservato: Sereno Sereno 10 36 1015 vento: Nord N/NE 18
31 Agosto 2026 01:00 tempo osservato: Sereno Sereno 11 34 1015 vento: Nord N/NE 18
31 Agosto 2026 00:30 tempo osservato: Sereno Sereno 12 30 1014 vento: Nord N/NE 18
31 Agosto 2026 00:00 tempo osservato: Sereno Sereno 13 28 1014 vento: Nord N/NE 18
30 Agosto 2026 23:30 tempo osservato: Sereno Sereno 13 28 1014 vento: Nord N/NE 18
30 Agosto 2026 23:00 tempo osservato: Sereno Sereno 14 26 1014 vento: Nord N/NE 21.6
30 Agosto 2026 22:30 tempo osservato: Sereno Sereno 16 23 1014 vento: Nord N/NE 21.6
30 Agosto 2026 22:00 tempo osservato: Sereno Sereno 17 21 1013 vento: Nord N/NE 21.6
30 Agosto 2026 21:30 tempo osservato: Sereno Sereno 18 22 1013 vento: Nord N/NE 21.6
30 Agosto 2026 21:00 tempo osservato: Sereno Sereno 19 20 1013 vento: Nord N 25.2
30 Agosto 2026 20:30 tempo osservato: Sereno Sereno 20 19 1012 vento: Nord N 25.2
30 Agosto 2026 20:00 tempo osservato: Sereno Sereno 21 18 1012 vento: Nord N 28.8
30 Agosto 2026 19:30 tempo osservato: Sereno Sereno 22 18 1011 vento: Nord N 28.8
30 Agosto 2026 19:00 tempo osservato: Sereno Sereno 23 16 1011 vento: Nord N 28.8
30 Agosto 2026 18:30 tempo osservato: Sereno Sereno 24 16 1011 vento: Nord N 28.8
30 Agosto 2026 18:00 tempo osservato: Sereno Sereno 24 17 1011 vento: Nord N 28.8
30 Agosto 2026 17:30 tempo osservato: Sereno Sereno 25 17 1011 vento: Nord N 28.8
30 Agosto 2026 17:00 tempo osservato: Sereno Sereno 26 18 1011 vento: Nord N 28.8
30 Agosto 2026 16:30 tempo osservato: Sereno Sereno 25 22 1011 vento: Nord N 28.8
30 Agosto 2026 16:00 tempo osservato: Sereno Sereno 27 18 1010 vento: Nord N 25.2
30 Agosto 2026 15:30 tempo osservato: Sereno Sereno 27 21 1010 vento: Nord N 25.2
30 Agosto 2026 15:00 tempo osservato: Sereno Sereno 25 23 1010 vento: Nord N 25.2
30 Agosto 2026 14:51 tempo osservato: Sereno Sereno 26 22 1010 vento: Nord N/NO 21.6
30 Agosto 2026 14:30 tempo osservato: Sereno Sereno 27 22 1011 vento: Nord N/NO 21.6
30 Agosto 2026 14:00 tempo osservato: Sereno Sereno 28 21 1010 vento: Nord N/NO 25.2
30 Agosto 2026 13:30 tempo osservato: Sereno Sereno 27 22 1010 vento: Nord NO 25.2
30 Agosto 2026 13:00 tempo osservato: Sereno Sereno 27 21 1011 vento: Nord O/NO 25.2
30 Agosto 2026 12:30 tempo osservato: Sereno Sereno 27 19 1011 vento: Nord NO 25.2
30 Agosto 2026 12:00 tempo osservato: Sereno Sereno 26 19 1011 vento: Nord O 18